createdAt,value
2022-12-13T00:01:48.920Z,0.07
2022-12-13T00:04:17.701Z,0.20
2022-12-13T00:06:45.854Z,0.07
2022-12-13T00:09:16.743Z,0.60
2022-12-13T00:11:45.679Z,0.40
2022-12-13T00:14:15.136Z,0.10
2022-12-13T00:16:47.022Z,0.20
2022-12-13T00:19:16.199Z,0.40
2022-12-13T00:21:44.539Z,0.47
2022-12-13T00:24:13.067Z,0.43
2022-12-13T00:26:42.636Z,0.30
2022-12-13T00:29:12.187Z,0.20
2022-12-13T00:34:28.816Z,0.10
2022-12-13T00:36:59.214Z,0.20
2022-12-13T00:39:27.735Z,0.27
2022-12-13T00:41:57.292Z,0.20
2022-12-13T00:44:25.629Z,0.60
2022-12-13T00:46:53.750Z,0.10
2022-12-13T00:49:21.930Z,0.77
2022-12-13T00:51:50.310Z,0.77
2022-12-13T00:54:18.950Z,0.60
2022-12-13T00:56:47.046Z,1.23
2022-12-13T00:59:17.360Z,0.17
2022-12-13T01:01:45.850Z,0.53
2022-12-13T01:04:14.531Z,0.57
2022-12-13T01:06:45.149Z,0.40
2022-12-13T01:09:18.419Z,0.43
2022-12-13T01:11:47.395Z,0.10
2022-12-13T01:14:17.637Z,0.40
2022-12-13T01:16:45.869Z,0.17
2022-12-13T01:19:14.083Z,0.13
2022-12-13T01:21:42.273Z,0.57
2022-12-13T01:24:10.576Z,0.70
2022-12-13T01:26:38.744Z,0.50
2022-12-13T01:29:07.023Z,0.53
2022-12-13T01:31:37.633Z,0.23
2022-12-13T01:34:10.627Z,0.10
2022-12-13T01:36:39.599Z,0.30
2022-12-13T01:39:14.859Z,0.53
2022-12-13T01:41:45.457Z,0.90
2022-12-13T01:44:50.940Z,0.30
2022-12-13T01:47:25.963Z,0.40
2022-12-13T01:49:57.170Z,0.53
2022-12-13T01:52:29.764Z,0.20
2022-12-13T01:55:03.659Z,0.50
2022-12-13T01:57:34.278Z,0.40
2022-12-13T02:00:03.339Z,0.67
2022-12-13T02:02:32.916Z,0.30
2022-12-13T02:05:06.894Z,0.10
2022-12-13T02:07:38.127Z,0.40
2022-12-13T02:10:08.909Z,1.80
2022-12-13T02:12:38.744Z,0.40
2022-12-13T02:15:11.821Z,0.77
2022-12-13T02:17:54.355Z,0.00
2022-12-13T02:20:41.594Z,0.70
2022-12-13T02:23:32.015Z,0.23
2022-12-13T02:26:28.558Z,0.27
2022-12-13T02:29:30.961Z,0.50
2022-12-13T02:32:05.980Z,0.57
2022-12-13T02:34:40.567Z,0.43
2022-12-13T02:37:17.681Z,0.53
2022-12-13T02:39:52.501Z,0.53
2022-12-13T02:42:25.334Z,0.67
2022-12-13T02:44:58.738Z,0.20
2022-12-13T02:47:30.561Z,0.30
2022-12-13T02:50:00.889Z,0.20
2022-12-13T02:52:32.468Z,0.00
2022-12-13T02:55:00.983Z,1.30
2022-12-13T02:57:32.344Z,0.20
2022-12-13T03:00:06.328Z,1.03
2022-12-13T03:02:47.286Z,0.27
2022-12-13T03:05:44.766Z,0.53
2022-12-13T03:08:23.570Z,0.10
2022-12-13T03:11:00.699Z,0.67
2022-12-13T03:13:37.010Z,0.10
2022-12-13T03:16:23.066Z,0.27
2022-12-13T03:18:55.204Z,0.50
2022-12-13T03:21:23.722Z,0.30
2022-12-13T03:23:51.999Z,0.43
2022-12-13T03:26:23.330Z,0.20
2022-12-13T03:28:51.607Z,0.30
2022-12-13T03:31:19.999Z,0.40
2022-12-13T03:33:48.485Z,0.23
2022-12-13T03:36:19.996Z,0.17
2022-12-13T03:38:52.427Z,0.87
2022-12-13T03:41:23.227Z,0.37
2022-12-13T03:43:51.784Z,0.37
2022-12-13T03:46:19.859Z,0.90
2022-12-13T03:48:47.968Z,0.33
2022-12-13T03:51:17.507Z,0.73
2022-12-13T03:53:45.801Z,0.73
2022-12-13T03:56:13.927Z,0.00
2022-12-13T03:58:43.395Z,0.60
2022-12-13T04:01:14.322Z,0.20
2022-12-13T04:03:44.929Z,0.20
2022-12-13T04:06:13.542Z,0.43
2022-12-13T04:08:53.054Z,0.10
2022-12-13T04:11:42.465Z,1.17
2022-12-13T04:14:12.177Z,0.43
2022-12-13T04:16:49.987Z,0.90
2022-12-13T04:19:22.885Z,0.40
2022-12-13T04:21:52.359Z,0.33
2022-12-13T04:24:22.501Z,0.50
2022-12-13T04:27:00.759Z,0.30
2022-12-13T04:29:33.879Z,0.10
2022-12-13T04:32:03.611Z,0.63
2022-12-13T04:34:36.863Z,0.20
2022-12-13T04:37:05.521Z,0.33
2022-12-13T04:39:35.112Z,0.20
2022-12-13T04:42:04.951Z,0.20
2022-12-13T04:44:36.786Z,0.90
2022-12-13T04:47:05.526Z,0.30
2022-12-13T04:49:34.108Z,0.60
2022-12-13T04:52:02.525Z,0.30
2022-12-13T04:54:36.202Z,0.50
2022-12-13T04:57:07.863Z,0.73
2022-12-13T04:59:36.188Z,0.87
2022-12-13T05:02:05.722Z,0.20
2022-12-13T05:04:34.468Z,0.43
2022-12-13T05:07:03.264Z,0.10
2022-12-13T05:09:31.518Z,0.20
2022-12-13T05:12:00.823Z,0.63
2022-12-13T05:14:31.492Z,0.40
2022-12-13T05:16:59.682Z,0.20
2022-12-13T05:19:31.222Z,0.40
2022-12-13T05:22:01.459Z,0.80
2022-12-13T05:24:31.159Z,0.27
2022-12-13T05:26:59.548Z,0.40
2022-12-13T05:29:28.566Z,0.17
2022-12-13T05:31:58.153Z,0.20
2022-12-13T05:34:26.451Z,0.30
2022-12-13T05:36:54.731Z,0.30
2022-12-13T05:39:28.870Z,0.40
2022-12-13T05:42:02.108Z,0.70
2022-12-13T05:44:31.758Z,0.60
2022-12-13T05:47:02.118Z,0.33
2022-12-13T05:49:31.368Z,0.30
2022-12-13T05:51:59.528Z,0.70
2022-12-13T05:54:27.871Z,0.53
2022-12-13T05:56:55.986Z,0.87
2022-12-13T05:59:24.124Z,0.40
2022-12-13T06:01:52.312Z,0.20
2022-12-13T06:04:22.527Z,0.10
2022-12-13T06:06:51.670Z,0.60
2022-12-13T06:09:20.284Z,0.47
2022-12-13T06:11:48.515Z,0.33
2022-12-13T06:14:22.198Z,0.63
2022-12-13T06:16:51.807Z,0.10
2022-12-13T06:19:21.668Z,0.40
2022-12-13T06:21:49.903Z,0.80
2022-12-13T06:24:20.049Z,0.43
2022-12-13T06:26:48.848Z,0.40
2022-12-13T06:29:23.714Z,0.90
2022-12-13T06:32:01.417Z,0.93
2022-12-13T06:34:34.238Z,0.70
2022-12-13T06:37:02.883Z,0.80
2022-12-13T06:39:33.231Z,0.67
2022-12-13T06:42:03.008Z,0.33
2022-12-13T06:44:31.144Z,0.50
2022-12-13T06:47:11.292Z,0.50
2022-12-13T06:49:44.214Z,0.00
2022-12-13T06:52:14.199Z,0.50
2022-12-13T06:54:42.961Z,0.40
2022-12-13T06:57:11.349Z,1.27
2022-12-13T06:59:39.730Z,0.80
2022-12-13T07:02:24.299Z,0.40
2022-12-13T07:04:56.552Z,0.97
2022-12-13T07:07:26.238Z,0.60
2022-12-13T07:09:54.947Z,0.50
2022-12-13T07:12:24.086Z,1.10
2022-12-13T07:14:52.246Z,3.93
2022-12-13T07:17:31.902Z,6.33
2022-12-13T07:20:08.564Z,3.23
2022-12-13T07:22:44.770Z,1.47
2022-12-13T07:25:28.491Z,0.33
2022-12-13T07:28:01.658Z,0.20
2022-12-13T07:30:31.704Z,0.43
2022-12-13T07:32:59.819Z,0.53
2022-12-13T07:35:29.700Z,0.70
2022-12-13T07:37:58.050Z,0.43
2022-12-13T07:40:26.538Z,0.97
2022-12-13T07:42:57.040Z,0.23
2022-12-13T07:45:25.392Z,1.07
2022-12-13T07:47:53.533Z,1.20
2022-12-13T07:50:24.924Z,1.40
2022-12-13T07:52:55.214Z,0.57
2022-12-13T07:55:33.460Z,0.90
2022-12-13T07:58:06.699Z,0.53
2022-12-13T08:00:35.170Z,0.60
2022-12-13T08:03:03.307Z,1.03
2022-12-13T08:05:38.755Z,0.60
2022-12-13T08:08:11.989Z,0.60
2022-12-13T08:10:40.479Z,1.00
2022-12-13T08:13:08.621Z,0.83
2022-12-13T08:15:36.691Z,0.50
2022-12-13T08:18:05.294Z,0.60
2022-12-13T08:20:33.545Z,0.73
2022-12-13T08:23:02.546Z,1.00
2022-12-13T08:25:32.842Z,0.70
2022-12-13T08:28:02.273Z,1.27
2022-12-13T08:30:31.507Z,2.23
2022-12-13T08:32:59.660Z,1.67
2022-12-13T08:35:34.631Z,1.07
2022-12-13T08:38:03.606Z,1.77
2022-12-13T08:40:33.259Z,0.80
2022-12-13T08:43:01.366Z,0.83
2022-12-13T08:45:30.617Z,0.83
2022-12-13T08:47:59.930Z,0.97
2022-12-13T08:50:28.263Z,0.57
2022-12-13T08:52:56.351Z,1.37
2022-12-13T08:55:31.302Z,0.80
2022-12-13T08:58:08.519Z,1.10
2022-12-13T09:00:37.789Z,1.40
2022-12-13T09:03:10.584Z,0.67
2022-12-13T09:05:39.205Z,0.57
2022-12-13T09:08:24.749Z,0.67
2022-12-13T09:11:01.219Z,0.67
2022-12-13T09:13:43.763Z,0.50
2022-12-13T09:16:23.584Z,0.97
2022-12-13T09:18:54.949Z,0.73
2022-12-13T09:21:31.791Z,0.77
2022-12-13T09:24:01.965Z,0.37
2022-12-13T09:26:37.666Z,0.43
2022-12-13T09:29:10.908Z,0.90
2022-12-13T09:31:40.793Z,1.57
2022-12-13T09:34:09.757Z,0.93
2022-12-13T09:36:38.034Z,1.00
2022-12-13T09:39:06.162Z,0.70
2022-12-13T09:41:40.694Z,0.90
2022-12-13T09:44:32.545Z,0.87
2022-12-13T09:47:04.616Z,0.73
2022-12-13T09:49:51.715Z,0.87
2022-12-13T09:52:23.703Z,0.87
2022-12-13T09:54:54.940Z,0.73
2022-12-13T09:57:30.912Z,1.60
2022-12-13T10:00:07.109Z,0.70
2022-12-13T10:02:43.559Z,0.30
2022-12-13T10:05:22.718Z,1.30
2022-12-13T10:07:55.639Z,0.30
2022-12-13T10:10:24.240Z,0.17
2022-12-13T10:12:57.264Z,0.53
2022-12-13T10:15:27.494Z,0.43
2022-12-13T10:17:56.103Z,0.27
2022-12-13T10:20:29.080Z,0.77
2022-12-13T10:25:50.964Z,0.30
2022-12-13T10:28:25.512Z,0.50
2022-12-13T10:30:55.895Z,0.47
2022-12-13T10:33:27.338Z,0.70
2022-12-13T10:36:08.476Z,0.10
2022-12-13T10:38:38.761Z,0.33
2022-12-13T10:41:29.399Z,0.20
2022-12-13T10:44:24.394Z,0.63
2022-12-13T10:47:03.330Z,0.10
2022-12-13T10:49:41.080Z,0.43
2022-12-13T10:52:30.786Z,0.97
2022-12-13T10:55:23.077Z,0.10
2022-12-13T10:57:53.906Z,0.40
2022-12-13T11:00:41.230Z,0.40
2022-12-13T11:03:14.120Z,0.20
2022-12-13T11:05:42.227Z,1.13
2022-12-13T11:08:15.564Z,0.27
2022-12-13T11:10:44.637Z,0.90
2022-12-13T11:13:26.283Z,0.17
2022-12-13T11:15:58.011Z,0.23
2022-12-13T11:18:31.689Z,0.50
2022-12-13T11:21:03.055Z,0.30
2022-12-13T11:23:34.692Z,1.03
2022-12-13T11:26:08.831Z,0.43
2022-12-13T11:29:00.820Z,0.30
2022-12-13T11:31:37.532Z,0.40
2022-12-13T11:34:17.365Z,0.50
2022-12-13T11:36:52.291Z,0.37
2022-12-13T11:39:27.224Z,0.40
2022-12-13T11:42:00.928Z,0.20
2022-12-13T11:44:47.408Z,0.00
2022-12-13T11:47:24.934Z,0.23
2022-12-13T11:49:55.470Z,0.50
2022-12-13T11:52:28.489Z,0.20
2022-12-13T11:55:00.922Z,0.53
2022-12-13T11:57:40.985Z,0.40
2022-12-13T12:00:34.407Z,1.10
2022-12-13T12:03:18.653Z,0.13
2022-12-13T12:05:56.064Z,0.67
2022-12-13T12:08:34.509Z,0.20
2022-12-13T12:11:10.186Z,0.50
2022-12-13T12:13:51.560Z,0.83
2022-12-13T12:16:30.065Z,0.27
2022-12-13T12:19:01.573Z,0.30
2022-12-13T12:22:12.350Z,0.10
2022-12-13T12:24:36.785Z,0.20
2022-12-13T12:27:22.359Z,0.20
2022-12-13T12:30:07.506Z,0.00
2022-12-13T12:32:44.749Z,0.30
2022-12-13T12:35:39.225Z,0.10
2022-12-13T12:38:36.054Z,0.00
2022-12-13T12:41:26.095Z,0.73
2022-12-13T12:44:04.893Z,0.07
2022-12-13T12:47:18.191Z,0.30
2022-12-13T12:50:24.426Z,0.00
2022-12-13T12:53:03.701Z,0.53
2022-12-13T12:55:51.029Z,0.20
2022-12-13T12:58:28.725Z,0.20
2022-12-13T13:01:09.323Z,0.00
2022-12-13T13:03:40.303Z,0.03
2022-12-13T13:06:13.460Z,0.10
2022-12-13T13:08:53.244Z,0.30
2022-12-13T13:11:26.381Z,0.00
2022-12-13T13:14:28.873Z,0.17
2022-12-13T13:16:57.546Z,0.03
2022-12-13T13:19:48.607Z,0.60
2022-12-13T13:22:44.419Z,0.33
2022-12-13T13:25:28.803Z,0.40
2022-12-13T13:28:16.897Z,0.10
2022-12-13T13:31:04.030Z,0.40
2022-12-13T13:33:45.671Z,0.17
2022-12-13T13:36:47.359Z,0.30
2022-12-13T13:39:19.404Z,0.10
2022-12-13T13:42:18.208Z,0.20
2022-12-13T13:45:18.208Z,0.57
2022-12-13T13:47:54.884Z,0.20
2022-12-13T13:51:05.597Z,0.17
2022-12-13T13:54:02.806Z,0.60
2022-12-13T13:56:50.001Z,0.10
2022-12-13T14:00:09.766Z,0.00
2022-12-13T14:03:29.092Z,0.10
2022-12-13T14:07:01.167Z,0.00
2022-12-13T14:10:07.961Z,0.53
2022-12-13T14:13:14.562Z,0.10
2022-12-13T14:16:35.629Z,0.20
2022-12-13T14:19:37.956Z,0.20
2022-12-13T14:22:23.894Z,0.93
2022-12-13T14:25:01.285Z,0.20
2022-12-13T14:27:41.242Z,0.30
2022-12-13T14:30:27.080Z,0.37
2022-12-13T14:32:56.050Z,0.10
2022-12-13T14:35:27.362Z,0.03
2022-12-13T14:38:02.932Z,0.43
2022-12-13T14:40:33.554Z,0.50
2022-12-13T14:43:02.684Z,0.53
2022-12-13T14:45:33.499Z,0.10
2022-12-13T14:48:05.904Z,0.40
2022-12-13T14:50:36.320Z,0.60
2022-12-13T14:53:06.809Z,0.40
2022-12-13T14:55:37.758Z,0.13
2022-12-13T14:58:17.831Z,0.20
2022-12-13T15:00:47.136Z,0.17
2022-12-13T15:03:23.717Z,0.17
2022-12-13T15:05:55.619Z,0.20
2022-12-13T15:08:26.338Z,0.67
2022-12-13T15:10:56.821Z,0.10
2022-12-13T15:13:30.278Z,0.10
2022-12-13T15:16:10.370Z,0.50
2022-12-13T15:18:39.717Z,0.13
2022-12-13T15:21:21.925Z,0.47
2022-12-13T15:23:53.077Z,0.20
2022-12-13T15:26:28.853Z,0.10
2022-12-13T15:28:59.988Z,0.97
2022-12-13T15:31:30.128Z,0.67
2022-12-13T15:34:28.303Z,0.17
2022-12-13T15:36:59.471Z,0.30
2022-12-13T15:39:32.176Z,0.93
2022-12-13T15:42:01.304Z,0.13
2022-12-13T15:44:32.450Z,0.70
2022-12-13T15:47:05.336Z,0.67
2022-12-13T15:49:35.995Z,0.10
2022-12-13T15:52:07.048Z,1.23
2022-12-13T15:54:36.912Z,1.70
2022-12-13T15:57:14.935Z,0.57
2022-12-13T15:59:46.059Z,0.93
2022-12-13T16:02:18.253Z,0.77
2022-12-13T16:04:46.527Z,1.03
2022-12-13T16:07:24.475Z,0.30
2022-12-13T16:09:57.452Z,0.60
2022-12-13T16:12:29.964Z,0.73
2022-12-13T16:15:28.666Z,0.20
2022-12-13T16:18:07.874Z,0.10
2022-12-13T16:20:36.549Z,0.03
2022-12-13T16:23:08.698Z,0.60
2022-12-13T16:25:40.191Z,0.70
2022-12-13T16:28:08.412Z,0.67
2022-12-13T16:31:03.419Z,0.70
2022-12-13T16:33:31.705Z,0.27
2022-12-13T16:36:00.158Z,0.80
2022-12-13T16:38:29.285Z,0.70
2022-12-13T16:41:08.439Z,0.67
2022-12-13T16:43:41.576Z,0.20
2022-12-13T16:47:12.188Z,0.57
2022-12-13T16:49:06.671Z,0.53
2022-12-13T16:51:34.854Z,0.47
2022-12-13T16:54:03.441Z,0.40
2022-12-13T16:56:33.502Z,0.03
2022-12-13T16:59:01.664Z,0.37
2022-12-13T17:01:32.963Z,0.60
2022-12-13T17:04:03.205Z,1.30
2022-12-13T17:06:35.431Z,0.80
2022-12-13T17:09:03.618Z,0.63
2022-12-13T17:11:34.877Z,0.83
2022-12-13T17:14:04.293Z,0.43
2022-12-13T17:16:32.861Z,1.10
2022-12-13T17:19:01.023Z,0.83
2022-12-13T17:21:29.912Z,0.87
2022-12-13T17:23:58.600Z,0.97
2022-12-13T17:26:27.619Z,0.83
2022-12-13T17:28:57.231Z,0.43
2022-12-13T17:31:28.111Z,0.50
2022-12-13T17:34:02.855Z,0.50
2022-12-13T17:36:31.727Z,0.37
2022-12-13T17:39:00.376Z,0.33
2022-12-13T17:41:28.555Z,0.63
2022-12-13T17:44:01.540Z,1.20
2022-12-13T17:46:29.762Z,0.93
2022-12-13T17:48:57.922Z,0.70
2022-12-13T17:51:26.082Z,0.10
2022-12-13T17:53:54.270Z,1.13
2022-12-13T17:56:22.545Z,0.13
2022-12-13T17:58:50.904Z,0.93
2022-12-13T18:01:21.771Z,0.60
2022-12-13T18:03:52.543Z,1.03
2022-12-13T18:06:21.103Z,1.73
2022-12-13T18:08:49.424Z,1.13
2022-12-13T18:11:35.104Z,0.20
2022-12-13T18:14:04.235Z,1.47
2022-12-13T18:16:37.497Z,1.77
2022-12-13T18:19:07.732Z,0.83
2022-12-13T18:21:37.130Z,0.60
2022-12-13T18:24:06.688Z,0.50
2022-12-13T18:26:35.274Z,1.47
2022-12-13T18:29:03.930Z,0.80
2022-12-13T18:31:33.710Z,0.60
2022-12-13T18:34:01.999Z,1.17
2022-12-13T18:36:30.429Z,1.27
2022-12-13T18:38:58.666Z,0.90
2022-12-13T18:41:29.209Z,0.80
2022-12-13T18:44:00.000Z,1.10
2022-12-13T18:46:29.308Z,0.80
2022-12-13T18:48:59.675Z,0.80
2022-12-13T18:51:28.506Z,1.50
2022-12-13T18:53:57.253Z,0.47
2022-12-13T18:56:26.040Z,0.67
2022-12-13T18:58:54.706Z,1.40
2022-12-13T19:01:27.070Z,0.97
2022-12-13T19:03:55.739Z,1.00
2022-12-13T19:06:26.805Z,1.27
2022-12-13T19:08:57.530Z,1.37
2022-12-13T19:11:27.116Z,0.70
2022-12-13T19:13:55.597Z,1.07
2022-12-13T19:16:25.320Z,0.97
2022-12-13T19:18:54.153Z,1.23
2022-12-13T19:21:24.883Z,0.63
2022-12-13T19:23:57.707Z,1.53
2022-12-13T19:26:26.896Z,1.30
2022-12-13T19:28:57.352Z,0.33
2022-12-13T19:31:31.097Z,0.90
2022-12-13T19:34:01.775Z,1.33
2022-12-13T19:36:32.435Z,1.30
2022-12-13T19:39:00.863Z,0.50
2022-12-13T19:41:29.686Z,0.60
2022-12-13T19:43:57.865Z,1.73
2022-12-13T19:46:26.266Z,0.67
2022-12-13T19:48:55.360Z,1.43
2022-12-13T19:51:23.859Z,1.20
2022-12-13T19:53:53.618Z,1.40
2022-12-13T19:56:22.853Z,2.07
2022-12-13T19:58:52.454Z,1.73
2022-12-13T20:01:20.743Z,1.90
2022-12-13T20:03:49.316Z,2.43
2022-12-13T20:06:20.453Z,3.53
2022-12-13T20:08:49.000Z,1.70
2022-12-13T20:11:21.424Z,1.50
2022-12-13T20:13:51.164Z,1.80
2022-12-13T20:16:21.452Z,1.17
2022-12-13T20:18:54.331Z,1.47
2022-12-13T20:21:22.941Z,1.17
2022-12-13T20:23:51.648Z,2.00
2022-12-13T20:26:24.538Z,0.73
2022-12-13T20:28:52.802Z,1.13
2022-12-13T20:31:22.645Z,2.07
2022-12-13T20:33:55.635Z,2.07
2022-12-13T20:36:26.431Z,1.40
2022-12-13T20:38:56.138Z,1.67
2022-12-13T20:41:26.764Z,0.97
2022-12-13T20:43:55.649Z,1.77
2022-12-13T20:46:24.171Z,0.90
2022-12-13T20:48:53.156Z,2.37
2022-12-13T20:51:22.766Z,2.10
2022-12-13T20:53:52.158Z,0.80
2022-12-13T20:56:21.601Z,1.33
2022-12-13T20:58:52.188Z,2.50
2022-12-13T21:01:22.647Z,2.30
2022-12-13T21:03:51.340Z,1.07
2022-12-13T21:06:19.504Z,1.77
2022-12-13T21:08:54.703Z,2.27
2022-12-13T21:11:28.903Z,1.63
2022-12-13T21:14:07.141Z,2.00
2022-12-13T21:16:39.177Z,1.57
2022-12-13T21:19:08.642Z,0.90
2022-12-13T21:21:36.832Z,1.67
2022-12-13T21:24:05.231Z,1.43
2022-12-13T21:26:36.108Z,1.97
2022-12-13T21:29:08.604Z,2.33
2022-12-13T21:31:37.372Z,1.47
2022-12-13T21:34:07.153Z,0.53
2022-12-13T21:36:36.494Z,1.33
2022-12-13T21:39:08.343Z,1.07
2022-12-13T21:41:36.637Z,2.20
2022-12-13T21:44:06.668Z,1.27
2022-12-13T21:49:23.017Z,1.37
2022-12-13T21:51:51.238Z,1.23
2022-12-13T21:54:19.536Z,2.00
2022-12-13T21:57:05.080Z,1.93
2022-12-13T21:59:34.618Z,1.27
2022-12-13T22:02:13.188Z,1.43
2022-12-13T22:04:43.641Z,0.50
2022-12-13T22:07:13.523Z,1.10
2022-12-13T22:09:41.762Z,1.93
2022-12-13T22:12:11.775Z,0.77
2022-12-13T22:14:41.305Z,1.10
2022-12-13T22:17:09.494Z,0.90
2022-12-13T22:19:37.805Z,1.00
2022-12-13T22:22:06.357Z,1.10
2022-12-13T22:24:35.023Z,0.63
2022-12-13T22:27:03.210Z,1.63
2022-12-13T22:29:31.352Z,1.23
2022-12-13T22:32:00.902Z,0.60
2022-12-13T22:34:29.149Z,0.83
2022-12-13T22:36:57.279Z,1.13
2022-12-13T22:39:26.021Z,0.90
2022-12-13T22:41:54.173Z,0.80
2022-12-13T22:44:22.473Z,0.50
2022-12-13T22:46:50.588Z,0.80
2022-12-13T22:49:20.277Z,0.77
2022-12-13T22:51:48.392Z,0.70
2022-12-13T22:54:16.968Z,0.30
2022-12-13T22:56:45.181Z,0.80
2022-12-13T22:59:13.362Z,0.70
2022-12-13T23:01:42.527Z,0.67
2022-12-13T23:04:16.329Z,0.97
2022-12-13T23:06:45.875Z,1.30
2022-12-13T23:09:15.737Z,0.80
2022-12-13T23:12:01.162Z,0.80
2022-12-13T23:14:31.359Z,1.03
2022-12-13T23:17:00.228Z,0.50
2022-12-13T23:19:49.677Z,1.00
2022-12-13T23:22:20.160Z,0.30
2022-12-13T23:24:48.416Z,0.97
2022-12-13T23:27:16.543Z,0.60
2022-12-13T23:29:44.693Z,1.43
2022-12-13T23:32:13.208Z,1.07
2022-12-13T23:34:41.316Z,0.97
2022-12-13T23:37:09.435Z,1.07
2022-12-13T23:39:38.957Z,1.50
2022-12-13T23:42:07.360Z,0.70
2022-12-13T23:44:35.642Z,0.57
2022-12-13T23:47:03.750Z,0.83
2022-12-13T23:49:32.466Z,0.73
2022-12-13T23:52:00.644Z,1.07
2022-12-13T23:54:28.765Z,0.50
2022-12-13T23:56:58.278Z,0.70
2022-12-13T23:59:26.867Z,1.37
